Weather observations for the past three days for
Saginaw County H W Browne Airport
Imperial (Metric)
Date Time (edt) Wind (mph) Vis. (mi.) Weather Sky Cond. Temperature (ºF) Relative Humidity Wind Chill (°F) Heat Index (°F) Pressure Precipitation (in)
Air Dwpt 6 hour altimeter (in) sea level (mb) 1 hr 3 hr 6 hr
Max. Min.
06 14:55 N 10 10.00 A Few Clouds FEW048 75.2 57.2 54% 78 30.13 0.0
06 14:35 N 12 G 17 10.00 Partly Cloudy SCT048 75.2 57.2 54% 78 30.13 0.0
06 14:15 N 9 10.00 Partly Cloudy SCT048 75.2 59 57% 78 30.12 0.0
06 13:55 NE 10 10.00 Partly Cloudy SCT046 73.4 55.4 76.1 57.4 53% 30.13 0.0
06 13:35 NE 14 G 20 10.00 Mostly Cloudy BKN046 BKN050 73.4 57.2 57% 30.13 0.0
06 13:15 NE 10 10.00 Mostly Cloudy SCT046 BKN050 75.2 55.4 50% 78 30.14 0.0
06 12:55 NE 14 10.00 Partly Cloudy SCT046 75.2 57.2 54% 78 30.14 0.0
06 12:35 NE 12 G 18 10.00 Partly Cloudy SCT046 75.2 57.2 54% 78 30.14 0.0
06 12:15 N 12 10.00 Fair CLR 73.4 59 61% 30.14 0.0
06 11:55 N 13 10.00 Partly Cloudy SCT032 SCT039 SCT046 75.2 60.8 61% 77 30.14 0.0
06 11:35 NE 10 10.00 Mostly Cloudy SCT032 BKN037 BKN048 73.4 60.8 65% 30.14 0.0
06 11:15 NE 14 10.00 Mostly Cloudy SCT030 SCT037 BKN050 71.6 60.8 69% 30.14 0.0
06 10:55 NE 10 10.00 Overcast SCT016 BKN023 OVC045 73.4 62.6 69% 30.13 0.0
06 10:35 N 6 10.00 Overcast BKN014 OVC023 71.6 66.2 83% 30.13 0.0
06 10:15 Vrbl 5 10.00 Mostly Cloudy BKN012 BKN021 69.8 64.4 83% 30.13 0.0
06 09:55 NE 5 10.00 A Few Clouds FEW010 FEW016 69.8 64.4 83% 30.13 0.0
06 09:35 NE 6 10.00 Partly Cloudy SCT018 68 64.4 88% 30.13 0.0
06 09:15 N 3 10.00 Mostly Cloudy BKN018 66.2 62.6 88% 30.13 0.0
06 08:55 N 3 10.00 Fair CLR 64.4 60.8 88% 30.13 0.0
06 08:35 NW 2 10.00 Fair CLR 62.6 59 88% 30.13 0.0
06 08:15 NW 2 10.00 Fair CLR 59 57.2 94% 30.13 0.0
06 07:55 NW 5 10.00 Fair CLR 57.2 57.2 57.9 53.8 100% 30.12 0.0
06 07:35 NW 6 10.00 Fair CLR 55.4 53.6 94% 30.11 0.0
06 07:15 NW 3 10.00 Fair CLR 55.4 55.4 100% 30.1 0.0
06 06:55 NW 5 10.00 Fair CLR 55.4 53.6 94% 30.1 0.0
06 06:35 NW 2 10.00 Fair CLR 53.6 53.6 100% 30.1 0.0
06 06:15 W 2 10.00 Fair CLR 55.4 53.6 94% 30.09 0.0
06 05:55 NW 2 10.00 Fair CLR 55.4 55.4 100% 30.09 0.0
06 05:35 NW 3 10.00 Fair CLR 55.4 53.6 94% 30.09 0.0
06 05:15 W 2 10.00 Fair CLR 55.4 55.4 100% 30.09 0.0
06 04:55 W 2 10.00 Fair CLR 55.4 55.4 100% 30.08 0.0
06 04:35 NW 3 10.00 Fair CLR 55.4 53.6 94% 30.08 0.0
06 04:15 NW 5 10.00 Fair CLR 55.4 55.4 100% 30.08 0.0
06 03:55 NW 3 10.00 Fair CLR 55.4 55.4 100% 30.08 0.0
06 03:35 W 3 10.00 Fair CLR 57.2 55.4 94% 30.08 0.0
06 03:15 NW 5 10.00 Fair CLR 57.2 55.4 94% 30.08 0.0
06 02:55 NW 3 10.00 Fair CLR 57.2 55.4 94% 30.07 0.0
06 02:35 NW 2 10.00 Fair CLR 57.2 55.4 94% 30.07 0.0
06 02:15 NW 2 10.00 Fair CLR 55.4 53.6 94% 30.07 0.0
06 01:55 N 3 10.00 Fair CLR 57.2 55.4 67.3 55.8 94% 30.07 0.0
06 01:35 N 3 10.00 Fair CLR 55.4 53.6 94% 30.06 0.0
06 01:15 NE 2 10.00 Fair CLR 57.2 55.4 94% 30.07 0.0
06 00:55 NW 1 10.00 Fair CLR 57.2 55.4 94% 30.07 0.0
06 00:35 NW 2 10.00 Fair CLR 57.2 55.4 94% 30.06 0.0
06 00:15 N 2 10.00 Fair CLR 57.2 53.6 88% 30.06 0.0
05 23:55 NE 2 10.00 Fair CLR 59 55.4 88% 30.06 0.0
05 23:35 NE 2 10.00 Fair CLR 59 55.4 88% 30.06 0.0
05 23:15 Calm 10.00 Fair CLR 59 55.4 88% 30.05 0.0
05 22:55 N 2 10.00 Fair CLR 59 55.4 88% 30.05 0.0
05 22:35 E 3 10.00 Fair CLR 60.8 55.4 83% 30.05 0.0
05 22:15 NE 3 10.00 Fair CLR 60.8 55.4 83% 30.05 0.0
05 21:55 NE 5 10.00 Fair CLR 60.8 55.4 83% 30.05 0.0
05 21:35 NE 6 10.00 Fair CLR 62.6 55.4 77% 30.05 0.0
05 21:15 N 7 10.00 Fair CLR 62.6 55.4 77% 30.04 0.0
05 20:55 NE 7 10.00 Fair CLR 64.4 55.4 73% 30.04 0.0
05 20:35 NE 8 10.00 Fair CLR 66.2 57.2 73% 30.03 0.0
05 20:15 NE 8 10.00 Fair CLR 66.2 57.2 73% 30.03 0.0
05 19:55 NE 7 10.00 Fair CLR 66.2 57.2 78.1 67.3 73% 30.03 0.0
05 19:35 NE 9 10.00 Fair CLR 69.8 57.2 64% 30.03 0.0
05 19:15 NE 9 10.00 Fair CLR 71.6 57.2 61% 30.02 0.0
05 18:55 NE 10 10.00 Fair CLR 73.4 59 61% 30.02 0.0
05 18:35 NE 12 10.00 Fair CLR 73.4 57.2 57% 30.01 0.0
05 18:15 NE 10 10.00 Fair CLR 75.2 59 57% 78 30.01 0.0
05 17:55 NE 12 G 18 10.00 Fair CLR 75.2 59 57% 78 30.01 0.0
05 17:35 NE 14 10.00 Fair CLR 75.2 57.2 54% 78 30 0.0
05 17:15 NE 14 G 18 10.00 Fair CLR 75.2 59 57% 78 30 0.0
05 16:55 N 13 10.00 Fair CLR 75.2 60.8 61% 77 30 0.0
05 16:35 NE 15 G 20 10.00 Fair CLR 77 62.6 61% 79 30.01 0.0
05 16:15 NE 12 10.00 Fair CLR 77 62.6 61% 79 30.01 0.0
05 15:55 NE 15 10.00 Fair CLR 77 62.6 61% 79 30.01 0.0
05 13:55 NE 9 10.00 Mostly Cloudy FEW033 BKN041 77 64.4 79 64.9 65% 79 30.01 0.0
05 13:35 NE 13 10.00 Mostly Cloudy BKN039 77 62.6 61% 79 30.01 0.0
05 13:15 NE 9 10.00 Mostly Cloudy BKN036 75.2 62.6 65% 77 30.01 0.0
05 12:55 E 8 9.00 Mostly Cloudy BKN034 77 64.4 65% 79 30.01 0.0
05 12:35 E 6 10.00 Partly Cloudy SCT034 75.2 62.6 65% 77 30.02 0.0
05 12:15 NE 10 10.00 Fair CLR 75.2 62.6 65% 77 30.01 0.0
05 11:55 NE 9 10.00 Fair CLR 75.2 62.6 65% 77 30.02 0.0
05 11:35 E 10 10.00 A Few Clouds FEW030 75.2 62.6 65% 77 30.01 0.0
05 11:15 E 8 10.00 Fair CLR 73.4 62.6 69% 30.01 0.0
05 10:55 E 8 10.00 Fair CLR 73.4 62.6 69% 30.01 0.0
05 10:35 E 8 10.00 Fair CLR 73.4 64.4 74% 30.01 0.0
05 10:15 E 10 10.00 Fair CLR 71.6 64.4 78% 30 0.0
05 09:55 E 9 10.00 Fair CLR 71.6 64.4 78% 30 0.0
05 09:35 E 10 10.00 Fair CLR 69.8 64.4 83% 30 0.0
05 09:15 E 7 10.00 Fair CLR 69.8 64.4 83% 30.01 0.0
05 08:55 NE 8 10.00 A Few Clouds FEW041 68 64.4 88% 30.01 0.0
05 08:35 NE 7 10.00 Mostly Cloudy BKN041 66.2 64.4 94% 30 0.0
05 08:15 NE 5 10.00 Partly Cloudy SCT041 66.2 64.4 94% 30 0.0
05 07:55 E 3 10.00 Fair CLR 64.4 64.4 65.8 63.9 100% 29.99 0.0
05 07:35 NE 3 10.00 Fair CLR 64.4 62.6 94% 29.99 0.0
05 07:15 NE 3 10.00 Fair CLR 64.4 62.6 94% 29.98 0.0
05 06:55 N 6 10.00 Partly Cloudy SCT030 64.4 64.4 100% 29.98 0.0
05 06:35 NE 3 10.00 Overcast OVC030 64.4 64.4 100% 29.98 0.0
05 06:15 NE 6 10.00 Overcast OVC028 66.2 64.4 94% 29.98 0.0
05 05:55 Vrbl 1 10.00 Overcast OVC026 66.2 64.4 94% 29.99 0.0
05 05:35 NE 2 10.00 Overcast OVC026 66.2 64.4 94% 29.98 0.0
05 05:15 NE 3 10.00 Overcast OVC026 66.2 64.4 94% 29.98 0.0
05 04:55 N 2 10.00 Overcast BKN026 BKN030 OVC055 66.2 64.4 94% 29.98 0.0
05 04:35 NE 3 10.00 Overcast SCT026 BKN030 OVC055 66.2 64.4 94% 29.97 0.0
05 04:15 E 3 10.00 Overcast BKN026 OVC050 66.2 64.4 94% 29.98 0.0
05 03:55 NE 2 10.00 Overcast BKN050 OVC120 66.2 64.4 94% 29.97 0.0
05 03:35 NE 3 10.00 Mostly Cloudy FEW055 SCT090 BKN120 64.4 62.6 94% 29.96 0.0
05 03:15 NE 6 10.00 Overcast BKN090 OVC110 66.2 62.6 88% 29.95 0.0
05 02:55 NE 6 10.00 Overcast BKN090 OVC120 64.4 62.6 94% 29.95 0.0
05 02:35 NE 5 10.00 Overcast FEW050 OVC090 64.4 62.6 94% 29.97 0.0
05 02:15 NE 3 10.00 Overcast SCT050 OVC100 64.4 62.6 94% 29.97 0.0
05 01:55 NE 3 10.00 Mostly Cloudy BKN100 BKN120 64.4 62.6 73.4 64.8 94% 29.97 0.0
05 01:35 NE 3 10.00 Mostly Cloudy BKN100 BKN120 64.4 62.6 94% 29.98 0.0
05 01:15 NE 3 10.00 Partly Cloudy SCT100 SCT120 64.4 64.4 100% 29.98 0.0
05 00:55 NE 6 10.00 Fair CLR 66.2 64.4 94% 29.97 0.0
05 00:35 NE 6 10.00 Fair CLR 64.4 64.4 100% 29.97 0.0
05 00:15 E 5 10.00 Fair CLR 64.4 64.4 100% 29.97 0.0
04 23:55 E 3 10.00 Fair CLR 64.4 62.6 94% 29.98 0.0
04 23:35 NE 5 10.00 Fair CLR 66.2 64.4 94% 29.98 0.0
04 23:15 NE 3 10.00 Fair CLR 66.2 64.4 94% 29.98 0.0
04 22:55 E 3 10.00 A Few Clouds FEW080 68 66.2 94% 29.98 0.0
04 22:35 E 7 10.00 A Few Clouds FEW080 69.8 66.2 88% 29.98 0.0
04 22:15 E 6 10.00 Mostly Cloudy SCT013 BKN080 69.8 68 94% 29.99 0.0
04 21:55 E 8 10.00 Overcast OVC011 71.6 68 88% 29.99 0.0
04 21:35 E 7 10.00 Overcast OVC011 71.6 68 88% 29.99 0.0
04 21:15 NE 6 6.00 Fog/Mist SCT011 OVC060 71.6 68 88% 29.99 0.0
04 20:55 NE 7 10.00 Overcast OVC060 71.6 68 88% 29.97 0.0
04 20:35 NE 7 10.00 Overcast FEW015 OVC060 71.6 69.8 94% 29.97 0.0
04 20:15 NE 6 10.00 Overcast SCT015 OVC060 71.6 69.8 94% 29.97 0.0
04 19:55 NE 8 10.00 Overcast FEW015 FEW044 OVC060 73.4 69.8 81 73.4 89% 29.96 0.0
04 19:35 N 5 10.00 Overcast FEW016 FEW046 OVC060 73.4 69.8 89% 29.96 0.0
04 19:15 N 6 10.00 Overcast SCT044 OVC060 73.4 69.8 89% 29.96 0.0
04 18:55 N 6 10.00 Overcast SCT012 BKN044 OVC060 73.4 69.8 89% 29.95 0.0
04 18:35 NE 9 10.00 Overcast SCT012 OVC060 73.4 69.8 89% 29.94 0.0
04 18:15 N 10 10.00 Overcast OVC060 73.4 69.8 89% 29.94 0.0
04 17:55 N 9 10.00 Overcast OVC060 75.2 69.8 83% 75 29.94 0.0 0.01
04 17:35 N 12 10.00 Overcast FEW043 OVC070 75.2 71.6 89% 75 29.93 0.0
04 17:15 N 13 10.00 Overcast BKN045 OVC070 77 71.6 83% 78 29.93 0.0
04 16:55 N 9 10.00 Mostly Cloudy SCT028 SCT039 BKN047 77 71.6 83% 78 29.93 0.0 0.01
04 16:35 N 8 10.00 Mostly Cloudy BKN023 BKN028 BKN039 80.6 71.6 74% 85 29.93 0.0
04 16:15 Vrbl 2 10.00 A Few Clouds FEW023 80.6 69.8 70% 84 29.93 0.0
04 15:55 Vrbl 5 10.00 Fair CLR 80.6 69.8 70% 84 29.93 0.0 0.01
04 15:35 Vrbl 5 10.00 Partly Cloudy FEW018 SCT033 80.6 71.6 74% 85 29.94 0.0
04 15:15 Vrbl 2 10.00 Mostly Cloudy SCT016 BKN023 BKN031 78.8 69.8 74% 81 29.94 0.0
04 14:55 SW 5 10.00 Mostly Cloudy BKN021 BKN027 78.8 71.6 79% 82 29.94 0.0 0.01
04 14:35 W 3 10.00 Mostly Cloudy BKN017 77 69.8 79% 79 29.94 0.0
04 14:15 SW 5 10.00 Overcast OVC015 77 71.6 83% 78 29.95 0.0
04 13:55 S 2 10.00 Overcast OVC013 77 71.6 76.8 67.8 83% 78 29.95 0.0 0.02
04 13:35 S 3 10.00 Overcast BKN009 OVC014 77 71.6 83% 78 29.95 0.0
04 13:15 Vrbl 1 10.00 Mostly Cloudy BKN009 75.2 71.6 89% 75 29.96 0.0
04 12:55 SE 3 10.00 Partly Cloudy SCT009 75.2 71.6 89% 75 29.96 0.0 0.01
04 12:35 E 3 10.00 A Few Clouds FEW009 75.2 71.6 89% 75 29.95 0.0
04 12:15 SE 3 10.00 A Few Clouds FEW009 75.2 71.6 89% 75 29.96 0.0
04 11:55 S 6 10.00 Fair CLR 73.4 71.6 94% 29.98 0.0 0.01
04 11:35 S 7 10.00 A Few Clouds FEW055 73.4 69.8 89% 29.97 0.0
04 11:15 S 9 10.00 Fair CLR 73.4 69.8 89% 29.98 0.0
04 10:55 S 6 10.00 Fair CLR 71.6 69.8 94% 29.99 0.0 0.02
04 10:35 S 5 10.00 Fair CLR 71.6 69.8 94% 29.99 0.0
04 10:15 S 6 10.00 Fair CLR 69.8 68 94% 29.97 0.0
04 09:55 S 3 10.00 Light Rain FEW041 SCT050 SCT065 69.8 68 94% 29.98 0.0 0.01
04 09:35 S 3 8.00 Light Rain BKN055 OVC065 68 68 100% 29.99 0.0
04 09:15 S 3 6.00 Light Rain Fog/Mist BKN055 BKN070 BKN100 68 68 100% 30 0.0
04 08:55 Vrbl 2 10.00 A Few Clouds FEW070 FEW100 68 68 100% 30 0.0 0.01
04 08:35 SW 5 9.00 Mostly Cloudy FEW004 SCT090 BKN110 68 68 100% 30 0.0
04 08:15 S 2 7.00 Light Rain Fog/Mist SCT004 BKN080 OVC110 68 68 100% 29.99 0.0
04 07:55 W 5 7.00 Light Rain FEW003 OVC090 68 68 67.8 66.2 100% 30 0.0 0.01
04 07:35 S 2 8.00 Overcast BKN003 OVC090 68 68 100% 29.99 0.0
04 07:15 S 2 8.00 Overcast OVC001 68 68 100% 29.97 0.0
04 06:55 S 5 9.00 Overcast OVC001 68 66.2 94% 29.95 0.0 0.02
04 06:35 S 5 8.00 Overcast OVC001 68 66.2 94% 29.95 0.0
04 06:15 E 3 8.00 Overcast OVC001 68 68 100% 29.96 0.0
04 05:55 E 3 7.00 Fog/Mist OVC001 68 68 100% 29.95 0.0 0.01
04 05:35 SE 5 7.00 Mostly Cloudy BKN001 BKN110 68 68 100% 29.94 0.0
04 05:15 S 5 8.00 Mostly Cloudy SCT001 BKN120 68 68 100% 29.96 0.0
04 04:55 E 3 7.00 Fog/Mist BKN001 BKN120 68 68 100% 29.96 0.0 0.01
04 04:35 S 2 0.50 Fog VV005 68 66.2 94% 29.96 0.0
04 04:15 SE 1 0.75 Fog/Mist VV005 68 68 100% 29.96 0.0
04 03:55 E 2 0.50 Fog VV005 68 66.2 94% 29.96 0.0 0.02
04 03:35 W 1 0.25 Fog VV002 68 66.2 94% 29.97 0.0
04 03:15 SE 5 0.50 Fog VV005 68 68 100% 29.96 0.0
04 02:55 E 5 0.25 Fog BKN001 66.2 66.2 100% 29.96 0.0 0.01
04 02:35 SE 2 2.50 Fog/Mist BKN001 66.2 66.2 100% 29.98 0.0
04 02:15 SE 2 0.50 Fog VV005 68 66.2 94% 29.99 0.0
04 01:55 Calm 0.25 Fog VV002 66.2 66.2 73.2 66.2 100% 29.99 0.0 0.02
04 01:35 SE 2 0.25 Fog VV002 66.2 66.2 100% 29.98 0.0
04 01:15 SE 2 0.25 Fog VV002 66.2 66.2 100% 29.98 0.0
04 00:55 SE 2 0.15 Fog BKN001 66.2 66.2 100% 29.99 0.0 0.02
04 00:35 Calm 0.50 Fog BKN001 68 68 100% 29.99 0.0
04 00:15 NE 3 0.50 Fog VV005 68 68 100% 29.99 0.0
03 23:55 N 3 0.50 Fog VV005 68 68 100% 29.99 0.0 0.02
03 23:35 NE 1 0.25 Fog VV002 69.8 68 94% 29.99 0.0
03 23:15 Calm 1.25 Fog/Mist SCT018 69.8 68 94% 29.99 0.0
03 22:55 N 1 10.00 Mostly Cloudy BKN018 69.8 69.8 100% 29.98 0.0 0.02
03 22:35 SE 3 10.00 Overcast OVC016 71.6 69.8 94% 29.98 0.0
03 22:15 Calm 10.00 Overcast OVC016 71.6 69.8 94% 29.98 0.0
03 21:55 SE 2 10.00 Overcast OVC014 71.6 69.8 94% 29.97 0.0 0.03
03 21:35 SE 2 10.00 Overcast OVC014 71.6 69.8 94% 29.97 0.0
03 21:15 SW 3 10.00 Overcast OVC014 71.6 69.8 94% 29.98 0.0
03 20:55 SE 1 7.00 Fog/Mist OVC012 71.6 69.8 94% 29.96 0.0 0.03
03 20:35 Calm 10.00 Overcast OVC012 71.6 69.8 94% 29.95 0.0
03 20:15 SW 1 10.00 Overcast OVC012 73.4 69.8 89% 29.95 0.0
03 19:55 S 2 10.00 Overcast OVC010 73.4 69.8 75.2 69.4 89% 29.94 0.0 0.04
03 19:35 SW 3 10.00 Overcast OVC012 73.4 71.6 94% 29.95 0.0
03 19:15 S 5 10.00 Overcast OVC012 73.4 71.6 94% 29.94 0.0
03 18:55 S 6 10.00 Overcast SCT007 OVC012 73.4 71.6 94% 29.93 0.0 0.05
03 18:35 Vrbl 2 10.00 Overcast OVC007 73.4 71.6 94% 29.94 0.0
03 18:15 S 6 10.00 Mostly Cloudy BKN007 BKN110 73.4 71.6 94% 29.93 0.0
03 17:55 S 6 10.00 Mostly Cloudy FEW005 BKN120 73.4 71.6 94% 29.92 0.0 0.05
03 17:15 SE 6 10.00 Mostly Cloudy BKN005 73.4 71.6 94% 29.91 0.0
03 16:55 E 3 10.00 Overcast OVC003 73.4 71.6 94% 29.92 0.0 0.06
03 16:35 E 6 10.00 Light Rain OVC003 73.4 71.6 94% 29.94 0.0
03 16:15 NE 8 6.00 Light Rain Fog/Mist BKN003 BKN007 OVC060 71.6 69.8 94% 29.96 0.0
03 15:55 N 5 5.00 Light Rain Fog/Mist SCT007 BKN065 OVC090 69.8 69.8 100% 30 0.0 0.07
03 15:35 W 8 6.00 Light Rain Fog/Mist SCT007 BKN032 OVC090 71.6 69.8 94% 30.02 0.0
03 15:15 NE 6 10.00 Light Rain BKN007 OVC011 71.6 69.8 94% 29.98 0.0
Date Time (edt) Wind (mph) Vis. (mi.) Weather Sky Cond. Air Dwpt Max. Min. Relative Humidity Wind Chill (°F) Heat Index (°F) altimeter (in) sea level (mb) 1 hr 3 hr 6 hr
6 hour
Temperature (ºF) Pressure Precipitation (in)